aviador You're here:

LJCE Decoded Metar

CERKLJE in SLOVENIA
Report Time2017-08-21 13:30:00
UTC Time2017-08-21 13:51:39
Flight Rules vfr VFR
Wind030° at 06 kt
W.Decomp.*RWY 09: 2.7 kt HW 5.3 kt LCW
W.Rank030° ranks 27
Current wind is above 030° avg. (4.3)
Visibility9999 m
Phenomena:N/A
Clouds:N/A
Expected CloudBase > 6,000 ft AGL from Temp-Dew spread
CeilingNone
Temp23°C (ISA +9)
Dew Point08°C (38% RH)
AAT20.4°C
QNH1020 hPa
Density Alt1,467 ft
Elevation508 ft
Report Wrong Elevation
Raw Report
METAR LJCE 211330Z AUTO 03006KT 310V070 9999 NCD 23/08 Q1020=

Extra information for LJCE:More info

Metar Taf Metar & Taf Last 4 Metars F.Rules Stats Wind Profile Meteogram Temp Stats Airport Information Weather charts Add Link Nearby VenuesMetar ALERT Operation Metar Decoded Social comments